sensor_id;sensor_type;location;lat;lon;timestamp;P1;durP1;ratioP1;P2;durP2;ratioP2
68216;SDS011;55037;52.354;4.992;2023-06-24T00:01:46;10.07;;;6.67;;
68216;SDS011;55037;52.354;4.992;2023-06-24T00:04:13;9.98;;;6.60;;
68216;SDS011;55037;52.354;4.992;2023-06-24T00:06:45;7.35;;;4.88;;
68216;SDS011;55037;52.354;4.992;2023-06-24T00:09:12;8.25;;;4.97;;
68216;SDS011;55037;52.354;4.992;2023-06-24T00:11:40;9.82;;;6.93;;
68216;SDS011;55037;52.354;4.992;2023-06-24T00:14:07;11.07;;;6.77;;
68216;SDS011;55037;52.354;4.992;2023-06-24T00:16:35;10.68;;;6.70;;
68216;SDS011;55037;52.354;4.992;2023-06-24T00:19:02;10.30;;;6.90;;
68216;SDS011;55037;52.354;4.992;2023-06-24T00:21:30;11.80;;;6.15;;
68216;SDS011;55037;52.354;4.992;2023-06-24T00:23:59;10.55;;;7.50;;
68216;SDS011;55037;52.354;4.992;2023-06-24T00:26:29;10.80;;;6.30;;
68216;SDS011;55037;52.354;4.992;2023-06-24T00:28:58;11.95;;;7.78;;
68216;SDS011;55037;52.354;4.992;2023-06-24T00:31:26;10.32;;;7.53;;
68216;SDS011;55037;52.354;4.992;2023-06-24T00:33:54;10.00;;;7.10;;
68216;SDS011;55037;52.354;4.992;2023-06-24T00:36:22;13.95;;;6.65;;
68216;SDS011;55037;52.354;4.992;2023-06-24T00:38:52;9.13;;;6.40;;
68216;SDS011;55037;52.354;4.992;2023-06-24T00:41:19;15.65;;;6.95;;
68216;SDS011;55037;52.354;4.992;2023-06-24T00:43:47;10.90;;;5.90;;
68216;SDS011;55037;52.354;4.992;2023-06-24T00:46:15;7.75;;;5.57;;
68216;SDS011;55037;52.354;4.992;2023-06-24T00:48:42;8.90;;;6.10;;
68216;SDS011;55037;52.354;4.992;2023-06-24T00:51:11;9.83;;;5.87;;
68216;SDS011;55037;52.354;4.992;2023-06-24T00:53:39;10.93;;;5.78;;
68216;SDS011;55037;52.354;4.992;2023-06-24T00:56:06;9.13;;;5.68;;
68216;SDS011;55037;52.354;4.992;2023-06-24T00:58:40;9.50;;;5.47;;
68216;SDS011;55037;52.354;4.992;2023-06-24T01:01:09;8.98;;;4.85;;
68216;SDS011;55037;52.354;4.992;2023-06-24T01:03:37;7.90;;;5.43;;
68216;SDS011;55037;52.354;4.992;2023-06-24T01:06:05;11.40;;;5.25;;
68216;SDS011;55037;52.354;4.992;2023-06-24T01:08:33;8.50;;;5.20;;
68216;SDS011;55037;52.354;4.992;2023-06-24T01:11:01;8.55;;;5.47;;
68216;SDS011;55037;52.354;4.992;2023-06-24T01:13:29;8.48;;;5.53;;
68216;SDS011;55037;52.354;4.992;2023-06-24T01:15:57;7.83;;;5.37;;
68216;SDS011;55037;52.354;4.992;2023-06-24T01:18:40;8.20;;;5.00;;
68216;SDS011;55037;52.354;4.992;2023-06-24T01:24:02;9.57;;;5.47;;
68216;SDS011;55037;52.354;4.992;2023-06-24T01:27:04;10.07;;;5.97;;
68216;SDS011;55037;52.354;4.992;2023-06-24T01:32:54;8.43;;;5.57;;
68216;SDS011;55037;52.354;4.992;2023-06-24T01:35:28;9.80;;;5.13;;
68216;SDS011;55037;52.354;4.992;2023-06-24T01:37:59;9.25;;;5.03;;
68216;SDS011;55037;52.354;4.992;2023-06-24T01:41:07;9.88;;;4.65;;
68216;SDS011;55037;52.354;4.992;2023-06-24T01:43:28;7.40;;;4.23;;
68216;SDS011;55037;52.354;4.992;2023-06-24T01:45:56;6.32;;;3.97;;
68216;SDS011;55037;52.354;4.992;2023-06-24T01:48:25;7.05;;;4.90;;
68216;SDS011;55037;52.354;4.992;2023-06-24T01:51:03;9.82;;;4.72;;
68216;SDS011;55037;52.354;4.992;2023-06-24T01:53:39;8.82;;;5.00;;
68216;SDS011;55037;52.354;4.992;2023-06-24T01:56:12;9.37;;;4.10;;
68216;SDS011;55037;52.354;4.992;2023-06-24T01:58:45;6.10;;;3.95;;
68216;SDS011;55037;52.354;4.992;2023-06-24T02:01:14;7.05;;;3.85;;
68216;SDS011;55037;52.354;4.992;2023-06-24T02:03:42;6.55;;;4.60;;
68216;SDS011;55037;52.354;4.992;2023-06-24T02:06:11;6.90;;;4.32;;
68216;SDS011;55037;52.354;4.992;2023-06-24T02:08:40;8.03;;;4.30;;
68216;SDS011;55037;52.354;4.992;2023-06-24T02:11:09;6.65;;;4.65;;
68216;SDS011;55037;52.354;4.992;2023-06-24T02:13:39;9.00;;;4.20;;
68216;SDS011;55037;52.354;4.992;2023-06-24T02:16:14;5.28;;;3.53;;
68216;SDS011;55037;52.354;4.992;2023-06-24T02:18:44;6.20;;;3.72;;
68216;SDS011;55037;52.354;4.992;2023-06-24T02:21:12;5.97;;;4.00;;
68216;SDS011;55037;52.354;4.992;2023-06-24T02:23:40;8.48;;;4.40;;
68216;SDS011;55037;52.354;4.992;2023-06-24T02:26:09;6.63;;;4.13;;
68216;SDS011;55037;52.354;4.992;2023-06-24T02:28:37;6.63;;;3.70;;
68216;SDS011;55037;52.354;4.992;2023-06-24T02:31:06;6.38;;;3.90;;
68216;SDS011;55037;52.354;4.992;2023-06-24T02:33:37;4.73;;;3.20;;
68216;SDS011;55037;52.354;4.992;2023-06-24T02:36:06;5.00;;;3.13;;
68216;SDS011;55037;52.354;4.992;2023-06-24T02:38:36;7.05;;;3.80;;
68216;SDS011;55037;52.354;4.992;2023-06-24T02:41:06;5.93;;;3.60;;
68216;SDS011;55037;52.354;4.992;2023-06-24T02:43:33;7.50;;;3.40;;
68216;SDS011;55037;52.354;4.992;2023-06-24T02:46:03;6.50;;;3.43;;
68216;SDS011;55037;52.354;4.992;2023-06-24T02:48:32;4.93;;;3.13;;
68216;SDS011;55037;52.354;4.992;2023-06-24T02:51:03;5.65;;;3.83;;
68216;SDS011;55037;52.354;4.992;2023-06-24T02:53:32;5.15;;;3.40;;
68216;SDS011;55037;52.354;4.992;2023-06-24T02:56:01;7.15;;;3.58;;
68216;SDS011;55037;52.354;4.992;2023-06-24T02:58:32;7.97;;;3.57;;
68216;SDS011;55037;52.354;4.992;2023-06-24T03:01:03;6.35;;;3.83;;
68216;SDS011;55037;52.354;4.992;2023-06-24T03:03:46;7.18;;;3.55;;
68216;SDS011;55037;52.354;4.992;2023-06-24T03:06:17;7.47;;;3.13;;
68216;SDS011;55037;52.354;4.992;2023-06-24T03:08:46;5.80;;;3.55;;
68216;SDS011;55037;52.354;4.992;2023-06-24T03:11:21;4.90;;;3.23;;
68216;SDS011;55037;52.354;4.992;2023-06-24T03:13:48;4.60;;;3.45;;
68216;SDS011;55037;52.354;4.992;2023-06-24T03:16:28;6.90;;;3.63;;
68216;SDS011;55037;52.354;4.992;2023-06-24T03:19:06;7.13;;;3.50;;
68216;SDS011;55037;52.354;4.992;2023-06-24T03:21:34;5.28;;;3.10;;
68216;SDS011;55037;52.354;4.992;2023-06-24T03:24:13;5.00;;;3.73;;
68216;SDS011;55037;52.354;4.992;2023-06-24T03:26:43;6.50;;;3.10;;
68216;SDS011;55037;52.354;4.992;2023-06-24T03:29:13;5.00;;;3.35;;
68216;SDS011;55037;52.354;4.992;2023-06-24T03:32:06;4.38;;;2.83;;
68216;SDS011;55037;52.354;4.992;2023-06-24T03:34:34;5.97;;;3.67;;
68216;SDS011;55037;52.354;4.992;2023-06-24T03:37:02;4.93;;;2.70;;
68216;SDS011;55037;52.354;4.992;2023-06-24T03:39:33;6.00;;;3.38;;
68216;SDS011;55037;52.354;4.992;2023-06-24T03:42:01;6.50;;;3.60;;
68216;SDS011;55037;52.354;4.992;2023-06-24T03:44:29;5.72;;;3.35;;
68216;SDS011;55037;52.354;4.992;2023-06-24T03:46:57;5.25;;;3.10;;
68216;SDS011;55037;52.354;4.992;2023-06-24T03:49:24;5.73;;;3.47;;
68216;SDS011;55037;52.354;4.992;2023-06-24T03:51:52;5.78;;;3.25;;
68216;SDS011;55037;52.354;4.992;2023-06-24T03:54:19;4.53;;;3.03;;
68216;SDS011;55037;52.354;4.992;2023-06-24T03:56:48;6.28;;;3.58;;
68216;SDS011;55037;52.354;4.992;2023-06-24T03:59:15;4.63;;;3.40;;
68216;SDS011;55037;52.354;4.992;2023-06-24T04:01:43;4.20;;;2.83;;
68216;SDS011;55037;52.354;4.992;2023-06-24T04:04:11;5.72;;;3.50;;
68216;SDS011;55037;52.354;4.992;2023-06-24T04:06:38;5.38;;;3.38;;
68216;SDS011;55037;52.354;4.992;2023-06-24T04:09:06;15.18;;;3.83;;
68216;SDS011;55037;52.354;4.992;2023-06-24T04:11:35;5.35;;;2.92;;
68216;SDS011;55037;52.354;4.992;2023-06-24T04:14:03;6.43;;;3.27;;
68216;SDS011;55037;52.354;4.992;2023-06-24T04:16:33;6.10;;;3.08;;
68216;SDS011;55037;52.354;4.992;2023-06-24T04:19:01;6.65;;;3.33;;
68216;SDS011;55037;52.354;4.992;2023-06-24T04:21:29;7.00;;;3.50;;
68216;SDS011;55037;52.354;4.992;2023-06-24T04:23:57;7.18;;;4.07;;
68216;SDS011;55037;52.354;4.992;2023-06-24T04:26:24;5.80;;;3.70;;
68216;SDS011;55037;52.354;4.992;2023-06-24T04:28:52;5.18;;;2.72;;
68216;SDS011;55037;52.354;4.992;2023-06-24T04:31:19;6.57;;;3.60;;
68216;SDS011;55037;52.354;4.992;2023-06-24T04:33:47;5.38;;;3.03;;
68216;SDS011;55037;52.354;4.992;2023-06-24T04:36:15;5.30;;;3.30;;
68216;SDS011;55037;52.354;4.992;2023-06-24T04:38:43;6.43;;;3.10;;
68216;SDS011;55037;52.354;4.992;2023-06-24T04:41:10;7.85;;;2.92;;
68216;SDS011;55037;52.354;4.992;2023-06-24T04:43:38;4.93;;;3.30;;
68216;SDS011;55037;52.354;4.992;2023-06-24T04:46:05;7.35;;;3.88;;
68216;SDS011;55037;52.354;4.992;2023-06-24T04:48:33;10.38;;;3.63;;
68216;SDS011;55037;52.354;4.992;2023-06-24T04:51:00;6.67;;;4.00;;
68216;SDS011;55037;52.354;4.992;2023-06-24T04:53:28;7.68;;;3.35;;
68216;SDS011;55037;52.354;4.992;2023-06-24T04:55:56;4.78;;;3.30;;
68216;SDS011;55037;52.354;4.992;2023-06-24T04:58:23;5.82;;;3.58;;
68216;SDS011;55037;52.354;4.992;2023-06-24T05:00:53;6.97;;;3.92;;
68216;SDS011;55037;52.354;4.992;2023-06-24T05:03:21;4.80;;;3.03;;
68216;SDS011;55037;52.354;4.992;2023-06-24T05:05:48;5.65;;;3.38;;
68216;SDS011;55037;52.354;4.992;2023-06-24T05:08:16;6.68;;;3.70;;
68216;SDS011;55037;52.354;4.992;2023-06-24T05:10:43;6.32;;;2.97;;
68216;SDS011;55037;52.354;4.992;2023-06-24T05:13:11;6.45;;;3.70;;
68216;SDS011;55037;52.354;4.992;2023-06-24T05:15:38;7.73;;;3.70;;
68216;SDS011;55037;52.354;4.992;2023-06-24T05:18:05;7.30;;;3.67;;
68216;SDS011;55037;52.354;4.992;2023-06-24T05:20:33;6.20;;;3.45;;
68216;SDS011;55037;52.354;4.992;2023-06-24T05:23:01;5.53;;;3.60;;
68216;SDS011;55037;52.354;4.992;2023-06-24T05:25:28;6.55;;;3.97;;
68216;SDS011;55037;52.354;4.992;2023-06-24T05:27:56;6.73;;;3.83;;
68216;SDS011;55037;52.354;4.992;2023-06-24T05:30:23;6.18;;;4.20;;
68216;SDS011;55037;52.354;4.992;2023-06-24T05:32:51;6.63;;;3.70;;
68216;SDS011;55037;52.354;4.992;2023-06-24T05:35:18;6.78;;;3.85;;
68216;SDS011;55037;52.354;4.992;2023-06-24T05:37:46;6.05;;;4.05;;
68216;SDS011;55037;52.354;4.992;2023-06-24T05:40:14;7.53;;;4.47;;
68216;SDS011;55037;52.354;4.992;2023-06-24T05:42:41;11.75;;;4.47;;
68216;SDS011;55037;52.354;4.992;2023-06-24T05:45:09;6.53;;;4.45;;
68216;SDS011;55037;52.354;4.992;2023-06-24T05:47:37;8.68;;;5.03;;
68216;SDS011;55037;52.354;4.992;2023-06-24T05:50:05;8.50;;;4.75;;
68216;SDS011;55037;52.354;4.992;2023-06-24T05:52:32;8.43;;;4.50;;
68216;SDS011;55037;52.354;4.992;2023-06-24T05:55:00;7.70;;;5.05;;
68216;SDS011;55037;52.354;4.992;2023-06-24T05:57:27;7.78;;;4.72;;
68216;SDS011;55037;52.354;4.992;2023-06-24T05:59:55;7.25;;;4.63;;
68216;SDS011;55037;52.354;4.992;2023-06-24T06:02:22;9.85;;;5.00;;
68216;SDS011;55037;52.354;4.992;2023-06-24T06:04:50;10.60;;;4.63;;
68216;SDS011;55037;52.354;4.992;2023-06-24T06:07:17;7.30;;;4.38;;
68216;SDS011;55037;52.354;4.992;2023-06-24T06:09:47;7.05;;;4.28;;
68216;SDS011;55037;52.354;4.992;2023-06-24T06:12:15;7.80;;;4.28;;
68216;SDS011;55037;52.354;4.992;2023-06-24T06:14:42;7.00;;;4.25;;
68216;SDS011;55037;52.354;4.992;2023-06-24T06:17:11;9.97;;;4.03;;
68216;SDS011;55037;52.354;4.992;2023-06-24T06:19:40;8.18;;;4.28;;
68216;SDS011;55037;52.354;4.992;2023-06-24T06:22:08;7.82;;;4.30;;
68216;SDS011;55037;52.354;4.992;2023-06-24T06:24:35;7.72;;;4.80;;
68216;SDS011;55037;52.354;4.992;2023-06-24T06:27:03;7.20;;;5.13;;
68216;SDS011;55037;52.354;4.992;2023-06-24T06:29:31;9.37;;;4.43;;
68216;SDS011;55037;52.354;4.992;2023-06-24T06:31:59;8.75;;;5.05;;
68216;SDS011;55037;52.354;4.992;2023-06-24T06:34:26;8.15;;;4.90;;
68216;SDS011;55037;52.354;4.992;2023-06-24T06:36:54;7.95;;;4.68;;
68216;SDS011;55037;52.354;4.992;2023-06-24T06:39:21;7.10;;;4.07;;
68216;SDS011;55037;52.354;4.992;2023-06-24T06:41:49;9.33;;;5.23;;
68216;SDS011;55037;52.354;4.992;2023-06-24T06:44:16;9.95;;;5.20;;
68216;SDS011;55037;52.354;4.992;2023-06-24T06:46:44;6.78;;;4.63;;
68216;SDS011;55037;52.354;4.992;2023-06-24T06:49:12;8.90;;;4.70;;
68216;SDS011;55037;52.354;4.992;2023-06-24T06:51:39;7.07;;;5.18;;
68216;SDS011;55037;52.354;4.992;2023-06-24T06:54:07;9.23;;;4.53;;
68216;SDS011;55037;52.354;4.992;2023-06-24T06:56:34;8.20;;;4.55;;
68216;SDS011;55037;52.354;4.992;2023-06-24T06:59:02;8.05;;;4.25;;
68216;SDS011;55037;52.354;4.992;2023-06-24T07:01:29;9.00;;;4.35;;
68216;SDS011;55037;52.354;4.992;2023-06-24T07:03:57;7.53;;;4.68;;
68216;SDS011;55037;52.354;4.992;2023-06-24T07:06:24;5.83;;;4.13;;
68216;SDS011;55037;52.354;4.992;2023-06-24T07:08:52;9.80;;;5.10;;
68216;SDS011;55037;52.354;4.992;2023-06-24T07:11:20;7.47;;;4.63;;
68216;SDS011;55037;52.354;4.992;2023-06-24T07:13:47;6.50;;;3.92;;
68216;SDS011;55037;52.354;4.992;2023-06-24T07:16:17;8.65;;;5.20;;
68216;SDS011;55037;52.354;4.992;2023-06-24T07:18:45;7.73;;;5.13;;
68216;SDS011;55037;52.354;4.992;2023-06-24T07:21:12;11.13;;;5.07;;
68216;SDS011;55037;52.354;4.992;2023-06-24T07:23:40;8.13;;;4.75;;
68216;SDS011;55037;52.354;4.992;2023-06-24T07:26:08;7.63;;;4.75;;
68216;SDS011;55037;52.354;4.992;2023-06-24T07:28:36;8.07;;;5.10;;
68216;SDS011;55037;52.354;4.992;2023-06-24T07:31:04;7.90;;;5.10;;
68216;SDS011;55037;52.354;4.992;2023-06-24T07:33:31;9.32;;;4.85;;
68216;SDS011;55037;52.354;4.992;2023-06-24T07:35:59;8.02;;;5.30;;
68216;SDS011;55037;52.354;4.992;2023-06-24T07:38:28;7.75;;;5.22;;
68216;SDS011;55037;52.354;4.992;2023-06-24T07:40:55;6.95;;;4.95;;
68216;SDS011;55037;52.354;4.992;2023-06-24T07:43:23;10.00;;;4.30;;
68216;SDS011;55037;52.354;4.992;2023-06-24T07:45:50;6.47;;;4.32;;
68216;SDS011;55037;52.354;4.992;2023-06-24T07:48:18;9.35;;;5.25;;
68216;SDS011;55037;52.354;4.992;2023-06-24T07:50:46;9.40;;;4.97;;
68216;SDS011;55037;52.354;4.992;2023-06-24T07:53:13;8.60;;;5.40;;
68216;SDS011;55037;52.354;4.992;2023-06-24T07:55:41;9.00;;;5.40;;
68216;SDS011;55037;52.354;4.992;2023-06-24T07:58:08;9.50;;;6.28;;
68216;SDS011;55037;52.354;4.992;2023-06-24T08:00:36;10.20;;;5.20;;
68216;SDS011;55037;52.354;4.992;2023-06-24T08:03:05;8.48;;;5.78;;
68216;SDS011;55037;52.354;4.992;2023-06-24T08:05:33;13.10;;;5.30;;
68216;SDS011;55037;52.354;4.992;2023-06-24T08:08:01;8.73;;;5.73;;
68216;SDS011;55037;52.354;4.992;2023-06-24T08:10:28;6.95;;;4.20;;
68216;SDS011;55037;52.354;4.992;2023-06-24T08:12:56;7.13;;;4.72;;
68216;SDS011;55037;52.354;4.992;2023-06-24T08:15:23;8.88;;;5.72;;
68216;SDS011;55037;52.354;4.992;2023-06-24T08:17:51;10.60;;;5.63;;
68216;SDS011;55037;52.354;4.992;2023-06-24T08:20:23;9.97;;;5.47;;
68216;SDS011;55037;52.354;4.992;2023-06-24T08:22:51;8.02;;;5.35;;
68216;SDS011;55037;52.354;4.992;2023-06-24T08:25:18;8.90;;;5.80;;
68216;SDS011;55037;52.354;4.992;2023-06-24T08:27:46;7.25;;;5.63;;
68216;SDS011;55037;52.354;4.992;2023-06-24T08:30:15;14.25;;;6.70;;
68216;SDS011;55037;52.354;4.992;2023-06-24T08:32:42;6.87;;;4.83;;
68216;SDS011;55037;52.354;4.992;2023-06-24T08:35:10;9.40;;;5.40;;
68216;SDS011;55037;52.354;4.992;2023-06-24T08:37:37;7.97;;;5.82;;
68216;SDS011;55037;52.354;4.992;2023-06-24T08:40:05;8.43;;;5.40;;
68216;SDS011;55037;52.354;4.992;2023-06-24T08:42:33;10.70;;;6.18;;
68216;SDS011;55037;52.354;4.992;2023-06-24T08:45:00;10.73;;;6.60;;
68216;SDS011;55037;52.354;4.992;2023-06-24T08:47:28;9.90;;;6.20;;
68216;SDS011;55037;52.354;4.992;2023-06-24T08:50:18;11.95;;;6.28;;
68216;SDS011;55037;52.354;4.992;2023-06-24T08:52:48;8.55;;;6.43;;
68216;SDS011;55037;52.354;4.992;2023-06-24T08:55:22;9.68;;;7.13;;
68216;SDS011;55037;52.354;4.992;2023-06-24T08:57:50;10.37;;;6.20;;
68216;SDS011;55037;52.354;4.992;2023-06-24T09:00:18;10.95;;;5.78;;
68216;SDS011;55037;52.354;4.992;2023-06-24T09:02:46;11.77;;;5.43;;
68216;SDS011;55037;52.354;4.992;2023-06-24T09:05:13;8.95;;;5.25;;
68216;SDS011;55037;52.354;4.992;2023-06-24T09:07:41;8.57;;;6.15;;
68216;SDS011;55037;52.354;4.992;2023-06-24T09:10:09;8.37;;;5.73;;
68216;SDS011;55037;52.354;4.992;2023-06-24T09:12:36;12.27;;;7.60;;
68216;SDS011;55037;52.354;4.992;2023-06-24T09:15:04;8.45;;;5.45;;
68216;SDS011;55037;52.354;4.992;2023-06-24T09:17:32;11.50;;;6.65;;
68216;SDS011;55037;52.354;4.992;2023-06-24T09:20:03;8.82;;;5.30;;
68216;SDS011;55037;52.354;4.992;2023-06-24T09:22:32;9.43;;;6.53;;
68216;SDS011;55037;52.354;4.992;2023-06-24T09:25:00;9.23;;;7.15;;
68216;SDS011;55037;52.354;4.992;2023-06-24T09:27:30;9.55;;;5.20;;
68216;SDS011;55037;52.354;4.992;2023-06-24T09:29:58;11.63;;;6.65;;
68216;SDS011;55037;52.354;4.992;2023-06-24T09:32:29;12.07;;;8.35;;
68216;SDS011;55037;52.354;4.992;2023-06-24T09:34:57;14.90;;;8.33;;
68216;SDS011;55037;52.354;4.992;2023-06-24T09:37:29;12.23;;;8.13;;
68216;SDS011;55037;52.354;4.992;2023-06-24T09:39:59;10.55;;;7.25;;
68216;SDS011;55037;52.354;4.992;2023-06-24T09:42:28;11.85;;;8.73;;
68216;SDS011;55037;52.354;4.992;2023-06-24T09:44:56;12.98;;;8.77;;
68216;SDS011;55037;52.354;4.992;2023-06-24T09:47:24;10.97;;;9.07;;
68216;SDS011;55037;52.354;4.992;2023-06-24T09:49:53;10.20;;;8.18;;
68216;SDS011;55037;52.354;4.992;2023-06-24T09:52:21;11.95;;;9.00;;
68216;SDS011;55037;52.354;4.992;2023-06-24T09:54:50;12.27;;;8.20;;
68216;SDS011;55037;52.354;4.992;2023-06-24T09:57:21;9.52;;;6.30;;
68216;SDS011;55037;52.354;4.992;2023-06-24T09:59:54;13.17;;;7.90;;
68216;SDS011;55037;52.354;4.992;2023-06-24T10:02:22;11.73;;;8.40;;
68216;SDS011;55037;52.354;4.992;2023-06-24T10:04:50;10.65;;;8.05;;
68216;SDS011;55037;52.354;4.992;2023-06-24T10:07:19;9.52;;;7.15;;
68216;SDS011;55037;52.354;4.992;2023-06-24T10:09:47;9.13;;;6.93;;
68216;SDS011;55037;52.354;4.992;2023-06-24T10:12:15;10.30;;;7.70;;
68216;SDS011;55037;52.354;4.992;2023-06-24T10:14:43;10.82;;;8.10;;
68216;SDS011;55037;52.354;4.992;2023-06-24T10:17:11;9.95;;;7.88;;
68216;SDS011;55037;52.354;4.992;2023-06-24T10:19:40;11.73;;;8.27;;
68216;SDS011;55037;52.354;4.992;2023-06-24T10:22:08;12.25;;;8.68;;
68216;SDS011;55037;52.354;4.992;2023-06-24T10:24:38;15.90;;;7.60;;
68216;SDS011;55037;52.354;4.992;2023-06-24T10:27:13;11.48;;;9.35;;
68216;SDS011;55037;52.354;4.992;2023-06-24T10:29:46;9.20;;;7.55;;
68216;SDS011;55037;52.354;4.992;2023-06-24T10:32:15;9.85;;;7.32;;
68216;SDS011;55037;52.354;4.992;2023-06-24T10:34:43;9.98;;;7.57;;
68216;SDS011;55037;52.354;4.992;2023-06-24T10:37:13;7.97;;;6.77;;
68216;SDS011;55037;52.354;4.992;2023-06-24T10:42:37;10.75;;;8.23;;
68216;SDS011;55037;52.354;4.992;2023-06-24T10:47:37;10.00;;;7.68;;
68216;SDS011;55037;52.354;4.992;2023-06-24T10:50:13;9.30;;;6.07;;
68216;SDS011;55037;52.354;4.992;2023-06-24T10:52:46;7.93;;;6.07;;
68216;SDS011;55037;52.354;4.992;2023-06-24T10:55:18;9.25;;;6.25;;
68216;SDS011;55037;52.354;4.992;2023-06-24T10:57:46;8.13;;;5.78;;
68216;SDS011;55037;52.354;4.992;2023-06-24T11:00:14;7.25;;;6.50;;
68216;SDS011;55037;52.354;4.992;2023-06-24T11:02:42;9.07;;;6.30;;
68216;SDS011;55037;52.354;4.992;2023-06-24T11:05:11;6.93;;;6.22;;
68216;SDS011;55037;52.354;4.992;2023-06-24T11:07:38;8.63;;;6.07;;
68216;SDS011;55037;52.354;4.992;2023-06-24T11:10:09;7.72;;;6.55;;
68216;SDS011;55037;52.354;4.992;2023-06-24T11:12:40;7.85;;;6.82;;
68216;SDS011;55037;52.354;4.992;2023-06-24T11:15:09;10.23;;;6.70;;
68216;SDS011;55037;52.354;4.992;2023-06-24T11:17:38;8.57;;;6.43;;
68216;SDS011;55037;52.354;4.992;2023-06-24T11:20:07;8.02;;;6.82;;
68216;SDS011;55037;52.354;4.992;2023-06-24T11:22:36;10.15;;;6.80;;
68216;SDS011;55037;52.354;4.992;2023-06-24T11:25:04;10.63;;;7.05;;
68216;SDS011;55037;52.354;4.992;2023-06-24T11:27:31;9.73;;;6.90;;
68216;SDS011;55037;52.354;4.992;2023-06-24T11:30:00;7.97;;;6.60;;
68216;SDS011;55037;52.354;4.992;2023-06-24T11:32:35;8.57;;;6.40;;
68216;SDS011;55037;52.354;4.992;2023-06-24T11:35:07;8.25;;;6.80;;
68216;SDS011;55037;52.354;4.992;2023-06-24T11:37:36;9.57;;;7.47;;
68216;SDS011;55037;52.354;4.992;2023-06-24T11:40:04;9.90;;;7.67;;
68216;SDS011;55037;52.354;4.992;2023-06-24T11:42:35;8.82;;;6.65;;
68216;SDS011;55037;52.354;4.992;2023-06-24T11:45:07;8.60;;;6.32;;
68216;SDS011;55037;52.354;4.992;2023-06-24T11:47:42;9.60;;;6.93;;
68216;SDS011;55037;52.354;4.992;2023-06-24T11:50:10;9.00;;;7.03;;
68216;SDS011;55037;52.354;4.992;2023-06-24T11:52:38;8.20;;;6.03;;
68216;SDS011;55037;52.354;4.992;2023-06-24T11:55:27;10.38;;;7.18;;
68216;SDS011;55037;52.354;4.992;2023-06-24T11:57:55;8.60;;;6.78;;
68216;SDS011;55037;52.354;4.992;2023-06-24T12:00:32;9.60;;;6.68;;
68216;SDS011;55037;52.354;4.992;2023-06-24T12:03:06;8.90;;;6.50;;
68216;SDS011;55037;52.354;4.992;2023-06-24T12:05:38;12.17;;;6.13;;
68216;SDS011;55037;52.354;4.992;2023-06-24T12:08:12;9.73;;;6.97;;
68216;SDS011;55037;52.354;4.992;2023-06-24T12:10:44;9.60;;;6.68;;
68216;SDS011;55037;52.354;4.992;2023-06-24T12:13:12;9.88;;;6.45;;
68216;SDS011;55037;52.354;4.992;2023-06-24T12:15:39;10.63;;;7.50;;
68216;SDS011;55037;52.354;4.992;2023-06-24T12:18:07;9.37;;;6.90;;
68216;SDS011;55037;52.354;4.992;2023-06-24T12:20:35;11.88;;;7.25;;
68216;SDS011;55037;52.354;4.992;2023-06-24T12:23:07;10.75;;;7.90;;
68216;SDS011;55037;52.354;4.992;2023-06-24T12:25:34;8.95;;;6.93;;
68216;SDS011;55037;52.354;4.992;2023-06-24T12:28:02;11.93;;;7.50;;
68216;SDS011;55037;52.354;4.992;2023-06-24T12:30:29;10.90;;;6.80;;
68216;SDS011;55037;52.354;4.992;2023-06-24T12:32:57;11.60;;;7.72;;
68216;SDS011;55037;52.354;4.992;2023-06-24T12:35:24;14.25;;;8.27;;
68216;SDS011;55037;52.354;4.992;2023-06-24T12:37:52;11.98;;;6.70;;
68216;SDS011;55037;52.354;4.992;2023-06-24T12:40:20;9.95;;;6.93;;
68216;SDS011;55037;52.354;4.992;2023-06-24T12:42:47;12.57;;;7.70;;
68216;SDS011;55037;52.354;4.992;2023-06-24T12:45:15;9.25;;;7.03;;
68216;SDS011;55037;52.354;4.992;2023-06-24T12:47:42;11.15;;;7.70;;
68216;SDS011;55037;52.354;4.992;2023-06-24T12:50:11;9.43;;;6.72;;
68216;SDS011;55037;52.354;4.992;2023-06-24T12:52:38;9.00;;;7.13;;
68216;SDS011;55037;52.354;4.992;2023-06-24T12:55:06;9.00;;;7.13;;
68216;SDS011;55037;52.354;4.992;2023-06-24T12:57:35;10.55;;;6.93;;
68216;SDS011;55037;52.354;4.992;2023-06-24T13:00:04;13.00;;;7.78;;
68216;SDS011;55037;52.354;4.992;2023-06-24T13:02:33;11.43;;;7.93;;
68216;SDS011;55037;52.354;4.992;2023-06-24T13:05:01;10.10;;;7.55;;
68216;SDS011;55037;52.354;4.992;2023-06-24T13:07:29;11.67;;;7.53;;
68216;SDS011;55037;52.354;4.992;2023-06-24T13:09:57;11.30;;;8.00;;
68216;SDS011;55037;52.354;4.992;2023-06-24T13:12:26;11.43;;;8.18;;
68216;SDS011;55037;52.354;4.992;2023-06-24T13:14:54;11.00;;;7.47;;
68216;SDS011;55037;52.354;4.992;2023-06-24T13:17:21;11.77;;;7.63;;
68216;SDS011;55037;52.354;4.992;2023-06-24T13:19:48;11.37;;;7.87;;
68216;SDS011;55037;52.354;4.992;2023-06-24T13:22:16;13.00;;;8.07;;
68216;SDS011;55037;52.354;4.992;2023-06-24T13:24:44;11.50;;;8.00;;
68216;SDS011;55037;52.354;4.992;2023-06-24T13:27:12;10.40;;;7.97;;
68216;SDS011;55037;52.354;4.992;2023-06-24T13:29:46;11.98;;;8.93;;
68216;SDS011;55037;52.354;4.992;2023-06-24T13:32:22;10.80;;;7.23;;
68216;SDS011;55037;52.354;4.992;2023-06-24T13:34:58;9.73;;;7.28;;
68216;SDS011;55037;52.354;4.992;2023-06-24T13:37:26;11.73;;;7.35;;
68216;SDS011;55037;52.354;4.992;2023-06-24T13:39:56;7.85;;;6.93;;
68216;SDS011;55037;52.354;4.992;2023-06-24T13:42:24;11.77;;;8.68;;
68216;SDS011;55037;52.354;4.992;2023-06-24T13:44:55;8.90;;;7.20;;
68216;SDS011;55037;52.354;4.992;2023-06-24T13:47:27;9.75;;;7.70;;
68216;SDS011;55037;52.354;4.992;2023-06-24T13:49:54;8.23;;;7.30;;
68216;SDS011;55037;52.354;4.992;2023-06-24T13:52:22;8.93;;;7.47;;
68216;SDS011;55037;52.354;4.992;2023-06-24T13:55:07;11.18;;;7.30;;
68216;SDS011;55037;52.354;4.992;2023-06-24T13:57:35;11.40;;;7.50;;
68216;SDS011;55037;52.354;4.992;2023-06-24T14:00:02;7.95;;;6.05;;
68216;SDS011;55037;52.354;4.992;2023-06-24T14:02:38;8.88;;;6.82;;
68216;SDS011;55037;52.354;4.992;2023-06-24T14:05:06;9.52;;;6.57;;
68216;SDS011;55037;52.354;4.992;2023-06-24T14:07:34;8.70;;;6.43;;
68216;SDS011;55037;52.354;4.992;2023-06-24T14:10:01;10.87;;;7.30;;
68216;SDS011;55037;52.354;4.992;2023-06-24T14:12:30;11.05;;;7.35;;
68216;SDS011;55037;52.354;4.992;2023-06-24T14:14:58;10.70;;;6.88;;
68216;SDS011;55037;52.354;4.992;2023-06-24T14:17:26;8.95;;;6.50;;
68216;SDS011;55037;52.354;4.992;2023-06-24T14:19:54;9.18;;;6.88;;
68216;SDS011;55037;52.354;4.992;2023-06-24T14:22:21;11.17;;;6.60;;
68216;SDS011;55037;52.354;4.992;2023-06-24T14:24:49;12.35;;;8.18;;
68216;SDS011;55037;52.354;4.992;2023-06-24T14:27:19;9.32;;;7.03;;
68216;SDS011;55037;52.354;4.992;2023-06-24T14:29:46;10.93;;;8.50;;
68216;SDS011;55037;52.354;4.992;2023-06-24T14:32:14;8.68;;;6.50;;
68216;SDS011;55037;52.354;4.992;2023-06-24T14:34:41;10.00;;;7.23;;
68216;SDS011;55037;52.354;4.992;2023-06-24T14:37:09;11.02;;;7.70;;
68216;SDS011;55037;52.354;4.992;2023-06-24T14:39:36;9.32;;;7.13;;
68216;SDS011;55037;52.354;4.992;2023-06-24T14:42:04;10.05;;;7.60;;
68216;SDS011;55037;52.354;4.992;2023-06-24T14:44:31;14.80;;;6.70;;
68216;SDS011;55037;52.354;4.992;2023-06-24T14:46:59;8.27;;;6.17;;
68216;SDS011;55037;52.354;4.992;2023-06-24T14:49:27;14.77;;;6.18;;
68216;SDS011;55037;52.354;4.992;2023-06-24T14:51:54;7.15;;;5.75;;
68216;SDS011;55037;52.354;4.992;2023-06-24T14:54:22;9.60;;;6.63;;
68216;SDS011;55037;52.354;4.992;2023-06-24T14:56:49;8.95;;;5.88;;
68216;SDS011;55037;52.354;4.992;2023-06-24T14:59:16;8.37;;;6.40;;
68216;SDS011;55037;52.354;4.992;2023-06-24T15:01:44;9.38;;;6.40;;
68216;SDS011;55037;52.354;4.992;2023-06-24T15:04:11;9.18;;;6.40;;
68216;SDS011;55037;52.354;4.992;2023-06-24T15:06:39;10.70;;;6.82;;